createdAt,value
2019-05-22T00:02:35.101Z,11.00
2019-05-22T00:05:19.056Z,10.90
2019-05-22T00:07:49.199Z,11.00
2019-05-22T00:10:26.377Z,10.90
2019-05-22T00:12:57.885Z,10.80
2019-05-22T00:15:27.738Z,10.90
2019-05-22T00:17:58.245Z,10.90
2019-05-22T00:20:29.558Z,10.90
2019-05-22T00:23:02.090Z,10.80
2019-05-22T00:25:33.406Z,10.80
2019-05-22T00:28:05.048Z,10.80
2019-05-22T00:30:36.244Z,10.70
2019-05-22T00:33:08.147Z,10.70
2019-05-22T00:35:38.811Z,10.70
2019-05-22T00:38:09.325Z,10.70
2019-05-22T00:40:45.292Z,10.70
2019-05-22T00:43:18.621Z,10.70
2019-05-22T00:45:50.909Z,10.70
2019-05-22T00:48:25.487Z,10.70
2019-05-22T00:51:21.963Z,10.70
2019-05-22T00:54:09.555Z,10.60
2019-05-22T00:56:56.513Z,10.60
2019-05-22T00:59:33.485Z,10.50
2019-05-22T01:02:04.624Z,10.50
2019-05-22T01:04:40.435Z,10.50
2019-05-22T01:07:17.648Z,10.50
2019-05-22T01:09:49.190Z,10.60
2019-05-22T01:12:27.014Z,10.50
2019-05-22T01:15:00.456Z,10.50
2019-05-22T01:17:34.211Z,10.50
2019-05-22T01:20:05.093Z,10.50
2019-05-22T01:22:36.361Z,10.50
2019-05-22T01:25:06.972Z,10.50
2019-05-22T01:27:38.889Z,10.40
2019-05-22T01:30:13.324Z,10.50
2019-05-22T01:32:49.932Z,10.50
2019-05-22T01:35:38.414Z,10.50
2019-05-22T01:38:10.400Z,10.50
2019-05-22T01:40:47.091Z,10.50
2019-05-22T01:43:20.219Z,10.50
2019-05-22T01:45:55.242Z,10.50
2019-05-22T01:48:29.953Z,10.50
2019-05-22T01:51:01.186Z,10.50
2019-05-22T01:53:36.030Z,10.50
2019-05-22T01:56:08.552Z,10.50
2019-05-22T01:58:41.347Z,10.50
2019-05-22T02:01:16.300Z,10.50
2019-05-22T02:03:47.050Z,10.50
2019-05-22T02:06:17.869Z,10.50
2019-05-22T02:08:55.756Z,10.50
2019-05-22T02:11:27.393Z,10.50
2019-05-22T02:14:09.063Z,10.50
2019-05-22T02:16:55.621Z,10.50
2019-05-22T02:19:13.032Z,10.50
2019-05-22T02:22:03.392Z,10.50
2019-05-22T02:24:34.864Z,10.50
2019-05-22T02:27:06.022Z,10.60
2019-05-22T02:29:37.783Z,10.60
2019-05-22T02:32:08.042Z,10.50
2019-05-22T02:34:38.856Z,10.50
2019-05-22T02:37:08.887Z,10.50
2019-05-22T02:39:40.586Z,10.40
2019-05-22T02:42:16.269Z,10.40
2019-05-22T02:44:47.382Z,10.40
2019-05-22T02:47:20.508Z,10.40
2019-05-22T02:49:50.487Z,10.40
2019-05-22T02:52:20.187Z,10.40
2019-05-22T02:54:49.959Z,10.40
2019-05-22T02:57:19.204Z,10.40
2019-05-22T02:59:48.774Z,10.40
2019-05-22T03:02:18.517Z,10.50
2019-05-22T03:05:07.153Z,10.50
2019-05-22T03:07:38.119Z,10.50
2019-05-22T03:10:10.635Z,10.50
2019-05-22T03:12:40.861Z,10.40
2019-05-22T03:15:13.029Z,10.40
2019-05-22T03:17:45.556Z,10.40
2019-05-22T03:20:19.342Z,10.40
2019-05-22T03:23:36.692Z,10.40
2019-05-22T03:26:09.551Z,10.40
2019-05-22T03:28:40.801Z,10.40
2019-05-22T03:31:12.242Z,10.40
2019-05-22T03:33:42.390Z,10.50
2019-05-22T03:36:20.923Z,10.40
2019-05-22T03:38:50.696Z,10.50
2019-05-22T03:41:20.879Z,10.50
2019-05-22T03:43:51.155Z,10.50
2019-05-22T03:46:49.554Z,10.50
2019-05-22T03:49:30.191Z,10.50
2019-05-22T03:51:55.691Z,10.50
2019-05-22T03:54:25.542Z,10.50
2019-05-22T03:56:55.561Z,10.40
2019-05-22T03:59:25.477Z,10.50
2019-05-22T04:01:56.121Z,10.50
2019-05-22T04:04:38.614Z,10.50
2019-05-22T04:07:11.424Z,10.50
2019-05-22T04:09:43.355Z,10.50
2019-05-22T04:12:13.213Z,10.50
2019-05-22T04:14:43.438Z,10.60
2019-05-22T04:17:15.404Z,10.60
2019-05-22T04:19:50.560Z,10.60
2019-05-22T04:22:16.966Z,10.70
2019-05-22T04:24:47.103Z,10.70
2019-05-22T04:27:17.971Z,10.80
2019-05-22T04:29:49.942Z,10.80
2019-05-22T04:32:27.508Z,10.80
2019-05-22T04:34:57.229Z,10.80
2019-05-22T04:37:28.972Z,10.90
2019-05-22T04:40:43.530Z,10.90
2019-05-22T04:43:13.016Z,10.90
2019-05-22T04:45:42.556Z,10.90
2019-05-22T04:48:12.790Z,10.90
2019-05-22T04:50:42.641Z,10.80
2019-05-22T04:53:12.285Z,10.80
2019-05-22T04:55:41.653Z,10.90
2019-05-22T04:58:13.772Z,10.90
2019-05-22T05:00:43.221Z,11.00
2019-05-22T05:03:12.834Z,11.00
2019-05-22T05:05:43.630Z,11.10
2019-05-22T05:08:14.148Z,11.20
2019-05-22T05:10:46.238Z,11.20
2019-05-22T05:13:16.059Z,11.30
2019-05-22T05:15:45.874Z,11.20
2019-05-22T05:18:15.802Z,11.30
2019-05-22T05:20:46.257Z,11.40
2019-05-22T05:23:15.918Z,11.50
2019-05-22T05:25:45.465Z,11.40
2019-05-22T05:28:17.191Z,11.40
2019-05-22T05:30:47.091Z,11.40
2019-05-22T05:33:17.083Z,11.40
2019-05-22T05:35:47.686Z,11.50
2019-05-22T05:38:20.095Z,11.80
2019-05-22T05:40:50.191Z,12.30
2019-05-22T05:43:21.313Z,12.30
2019-05-22T05:45:53.430Z,12.10
2019-05-22T05:48:24.111Z,12.00
2019-05-22T05:51:30.400Z,12.00
2019-05-22T05:54:08.651Z,11.90
2019-05-22T05:56:40.848Z,11.90
2019-05-22T05:59:12.287Z,11.90
2019-05-22T06:01:46.033Z,11.70
2019-05-22T06:04:32.210Z,11.80
2019-05-22T06:07:22.724Z,12.50
2019-05-22T06:10:34.345Z,13.30
2019-05-22T06:13:04.466Z,13.70
2019-05-22T06:15:59.749Z,13.70
2019-05-22T06:18:56.460Z,13.90
2019-05-22T06:21:24.174Z,14.00
2019-05-22T06:24:23.776Z,14.20
2019-05-22T06:27:19.340Z,14.20
2019-05-22T06:29:57.278Z,14.10
2019-05-22T06:32:54.755Z,13.50
2019-05-22T06:35:26.848Z,13.30
2019-05-22T06:38:05.000Z,13.10
2019-05-22T06:40:34.430Z,12.90
2019-05-22T06:44:01.669Z,12.90
2019-05-22T06:46:49.705Z,12.90
2019-05-22T06:49:44.160Z,13.20
2019-05-22T06:52:14.145Z,13.40
2019-05-22T06:54:43.862Z,13.60
2019-05-22T06:57:20.492Z,13.20
2019-05-22T07:00:11.580Z,13.20
2019-05-22T07:02:22.891Z,13.30
2019-05-22T07:04:52.774Z,13.50
2019-05-22T07:07:24.277Z,13.70
2019-05-22T07:09:53.452Z,13.80
2019-05-22T07:12:27.689Z,13.80
2019-05-22T07:15:23.115Z,13.80
2019-05-22T07:17:56.822Z,14.00
2019-05-22T07:20:32.443Z,13.80
2019-05-22T07:23:03.773Z,13.80
2019-05-22T07:25:35.378Z,14.00
2019-05-22T07:28:05.971Z,14.10
2019-05-22T07:30:36.059Z,14.10
2019-05-22T07:33:06.345Z,14.30
2019-05-22T07:35:56.211Z,14.40
2019-05-22T07:38:06.589Z,14.60
2019-05-22T07:40:36.699Z,14.90
2019-05-22T07:43:06.675Z,15.40
2019-05-22T07:45:37.912Z,15.80
2019-05-22T07:48:08.667Z,16.10
2019-05-22T07:50:42.196Z,16.40
2019-05-22T07:53:11.515Z,16.30
2019-05-22T07:55:41.570Z,16.40
2019-05-22T07:58:14.084Z,16.40
2019-05-22T08:00:47.819Z,16.40
2019-05-22T08:03:17.921Z,16.30
2019-05-22T08:05:50.273Z,16.40
2019-05-22T08:08:20.923Z,16.60
2019-05-22T08:10:50.458Z,16.40
2019-05-22T08:13:20.028Z,16.50
2019-05-22T08:15:49.530Z,16.70
2019-05-22T08:18:19.385Z,16.80
2019-05-22T08:20:49.088Z,17.00
2019-05-22T08:23:18.845Z,17.00
2019-05-22T08:25:48.478Z,17.10
2019-05-22T08:28:19.908Z,17.20
2019-05-22T08:30:50.243Z,17.20
2019-05-22T08:33:20.740Z,17.20
2019-05-22T08:35:50.772Z,16.90
2019-05-22T08:38:28.160Z,17.10
2019-05-22T08:40:59.250Z,17.00
2019-05-22T08:43:30.243Z,17.10
2019-05-22T08:46:00.273Z,17.30
2019-05-22T08:48:30.382Z,17.40
2019-05-22T08:51:00.113Z,17.40
2019-05-22T08:53:44.411Z,17.50
2019-05-22T08:56:02.054Z,17.30
2019-05-22T08:58:31.553Z,17.30
2019-05-22T09:01:00.725Z,17.40
2019-05-22T09:03:30.330Z,17.20
2019-05-22T09:05:59.645Z,17.30
2019-05-22T09:08:29.366Z,17.60
2019-05-22T09:10:58.977Z,18.00
2019-05-22T09:13:28.449Z,18.30
2019-05-22T09:16:01.631Z,18.60
2019-05-22T09:18:29.982Z,18.80
2019-05-22T09:20:59.840Z,18.90
2019-05-22T09:23:29.320Z,18.80
2019-05-22T09:26:00.291Z,18.60
2019-05-22T09:28:30.053Z,18.70
2019-05-22T09:30:59.580Z,18.80
2019-05-22T09:33:30.342Z,19.00
2019-05-22T09:36:00.376Z,19.20
2019-05-22T09:38:30.218Z,19.10
2019-05-22T09:40:59.608Z,18.60
2019-05-22T09:43:29.042Z,18.70
2019-05-22T09:45:58.284Z,18.90
2019-05-22T09:48:27.549Z,19.00
2019-05-22T09:50:57.401Z,19.00
2019-05-22T09:53:27.112Z,19.30
2019-05-22T09:55:57.307Z,19.50
2019-05-22T09:58:27.615Z,19.40
2019-05-22T10:00:57.247Z,19.40
2019-05-22T10:03:26.696Z,19.50
2019-05-22T10:05:56.171Z,19.40
2019-05-22T10:08:26.310Z,19.10
2019-05-22T10:10:55.813Z,18.80
2019-05-22T10:13:29.002Z,19.00
2019-05-22T10:15:56.888Z,19.40
2019-05-22T10:18:26.465Z,19.60
2019-05-22T10:20:56.470Z,19.40
2019-05-22T10:23:26.133Z,19.20
2019-05-22T10:25:55.772Z,19.10
2019-05-22T10:28:25.771Z,19.20
2019-05-22T10:30:56.177Z,19.50
2019-05-22T10:33:26.484Z,19.70
2019-05-22T10:35:55.918Z,20.00
2019-05-22T10:38:25.377Z,20.20
2019-05-22T10:40:58.510Z,20.50
2019-05-22T10:43:25.669Z,20.60
2019-05-22T10:45:55.796Z,20.90
2019-05-22T10:48:25.575Z,20.90
2019-05-22T10:50:54.838Z,20.50
2019-05-22T10:53:33.737Z,20.40
2019-05-22T10:55:56.195Z,20.10
2019-05-22T10:58:25.496Z,20.10
2019-05-22T11:00:55.038Z,20.80
2019-05-22T11:03:25.034Z,21.20
2019-05-22T11:06:06.715Z,21.50
2019-05-22T11:08:30.280Z,21.60
2019-05-22T11:10:57.926Z,21.80
2019-05-22T11:13:29.259Z,22.00
2019-05-22T11:16:00.315Z,22.40
2019-05-22T11:18:29.622Z,22.10
2019-05-22T11:20:58.973Z,21.60
2019-05-22T11:23:28.903Z,21.30
2019-05-22T11:25:58.266Z,21.60
2019-05-22T11:28:29.474Z,22.10
2019-05-22T11:30:59.925Z,22.00
2019-05-22T11:33:29.325Z,21.70
2019-05-22T11:35:58.579Z,21.20
2019-05-22T11:38:28.095Z,20.60
2019-05-22T11:40:57.535Z,19.90
2019-05-22T11:43:28.187Z,19.60
2019-05-22T11:45:57.499Z,19.50
2019-05-22T11:48:26.908Z,19.70
2019-05-22T11:51:00.797Z,19.40
2019-05-22T11:53:28.365Z,19.50
2019-05-22T11:55:58.206Z,19.50
2019-05-22T11:58:27.473Z,19.50
2019-05-22T12:00:56.714Z,19.50
2019-05-22T12:03:26.999Z,19.60
2019-05-22T12:05:56.474Z,19.60
2019-05-22T12:08:26.892Z,19.70
2019-05-22T12:10:56.402Z,19.90
2019-05-22T12:13:26.038Z,20.10
2019-05-22T12:15:57.380Z,20.20
2019-05-22T12:18:26.964Z,19.80
2019-05-22T12:20:56.711Z,19.60
2019-05-22T12:23:26.711Z,19.50
2019-05-22T12:25:56.080Z,19.60
2019-05-22T12:28:25.378Z,19.80
2019-05-22T12:30:55.297Z,19.80
2019-05-22T12:33:24.981Z,19.60
2019-05-22T12:35:55.129Z,19.40
2019-05-22T12:38:26.853Z,19.40
2019-05-22T12:40:55.809Z,19.30
2019-05-22T12:43:26.453Z,19.20
2019-05-22T12:45:55.860Z,19.10
2019-05-22T12:48:25.508Z,19.00
2019-05-22T12:50:55.987Z,19.00
2019-05-22T12:53:25.622Z,19.20
2019-05-22T12:55:55.233Z,19.70
2019-05-22T12:58:24.682Z,20.50
2019-05-22T13:00:55.611Z,21.10
2019-05-22T13:03:25.833Z,21.60
2019-05-22T13:05:56.487Z,21.90
2019-05-22T13:08:26.814Z,21.50
2019-05-22T13:10:57.776Z,21.10
2019-05-22T13:13:27.117Z,21.00
2019-05-22T13:15:58.000Z,21.30
2019-05-22T13:18:27.936Z,21.70
2019-05-22T13:20:58.111Z,21.90
2019-05-22T13:23:30.714Z,22.10
2019-05-22T13:25:59.988Z,22.20
2019-05-22T13:28:30.559Z,22.40
2019-05-22T13:31:01.063Z,22.40
2019-05-22T13:33:31.857Z,22.50
2019-05-22T13:36:02.871Z,22.60
2019-05-22T13:38:32.208Z,22.30
2019-05-22T13:41:02.077Z,21.90
2019-05-22T13:43:31.933Z,21.50
2019-05-22T13:46:02.025Z,21.30
2019-05-22T13:48:31.367Z,21.30
2019-05-22T13:51:01.438Z,21.60
2019-05-22T13:53:32.033Z,21.70
2019-05-22T13:56:01.785Z,21.90
2019-05-22T13:58:32.572Z,22.30
2019-05-22T14:01:02.618Z,22.50
2019-05-22T14:03:32.380Z,22.60
2019-05-22T14:06:02.604Z,22.40
2019-05-22T14:08:31.860Z,21.90
2019-05-22T14:11:01.581Z,21.50
2019-05-22T14:13:31.224Z,21.00
2019-05-22T14:16:00.896Z,20.70
2019-05-22T14:18:30.430Z,20.50
2019-05-22T14:21:00.029Z,20.40
2019-05-22T14:23:29.740Z,20.60
2019-05-22T14:25:59.273Z,20.50
2019-05-22T14:28:30.491Z,20.50
2019-05-22T14:31:00.015Z,20.50
2019-05-22T14:33:29.392Z,20.70
2019-05-22T14:35:59.654Z,21.10
2019-05-22T14:38:29.277Z,21.30
2019-05-22T14:40:58.916Z,21.20
2019-05-22T14:43:29.200Z,21.30
2019-05-22T14:45:59.949Z,21.20
2019-05-22T14:48:29.676Z,21.10
2019-05-22T14:50:59.492Z,21.00
2019-05-22T14:53:29.033Z,20.80
2019-05-22T14:56:00.201Z,20.70
2019-05-22T14:58:30.553Z,20.50
2019-05-22T15:01:00.389Z,20.50
2019-05-22T15:03:30.052Z,20.40
2019-05-22T15:05:59.243Z,20.40
2019-05-22T15:08:28.804Z,20.40
2019-05-22T15:10:59.472Z,20.40
2019-05-22T15:13:28.988Z,20.10
2019-05-22T15:15:59.125Z,20.00
2019-05-22T15:18:29.042Z,20.10
2019-05-22T15:21:04.716Z,20.20
2019-05-22T15:23:34.855Z,20.20
2019-05-22T15:26:04.546Z,20.10
2019-05-22T15:28:34.431Z,20.00
2019-05-22T15:31:04.430Z,20.00
2019-05-22T15:33:34.857Z,19.80
2019-05-22T15:36:06.874Z,19.90
2019-05-22T15:38:39.614Z,19.90
2019-05-22T15:41:10.626Z,20.10
2019-05-22T15:43:52.981Z,20.10
2019-05-22T15:46:23.400Z,20.00
2019-05-22T15:48:54.293Z,19.90
2019-05-22T15:51:28.000Z,19.80
2019-05-22T15:54:00.517Z,19.80
2019-05-22T15:56:33.955Z,19.90
2019-05-22T15:59:05.993Z,19.90
2019-05-22T16:01:37.009Z,19.90
2019-05-22T16:04:09.062Z,19.80
2019-05-22T16:06:39.481Z,19.90
2019-05-22T16:09:13.469Z,19.90
2019-05-22T16:11:44.055Z,19.90
2019-05-22T16:14:14.905Z,19.70
2019-05-22T16:16:46.215Z,19.60
2019-05-22T16:19:16.409Z,19.60
2019-05-22T16:21:48.408Z,19.50
2019-05-22T16:24:19.249Z,19.40
2019-05-22T16:26:49.669Z,19.30
2019-05-22T16:29:21.918Z,19.20
2019-05-22T16:31:52.298Z,19.20
2019-05-22T16:34:22.865Z,19.20
2019-05-22T16:36:53.017Z,19.10
2019-05-22T16:39:23.804Z,19.00
2019-05-22T16:41:53.652Z,19.00
2019-05-22T16:44:23.384Z,19.00
2019-05-22T16:46:53.573Z,18.90
2019-05-22T16:49:23.017Z,18.80
2019-05-22T16:51:52.567Z,18.70
2019-05-22T16:54:22.911Z,18.70
2019-05-22T16:56:53.099Z,18.70
2019-05-22T16:59:22.817Z,18.60
2019-05-22T17:01:59.299Z,18.50
2019-05-22T17:04:24.684Z,18.50
2019-05-22T17:06:53.883Z,18.50
2019-05-22T17:09:24.753Z,18.50
2019-05-22T17:11:54.800Z,18.40
2019-05-22T17:14:25.323Z,18.30
2019-05-22T17:16:55.962Z,18.30
2019-05-22T17:19:27.837Z,18.30
2019-05-22T17:21:57.216Z,18.30
2019-05-22T17:24:27.057Z,18.20
2019-05-22T17:26:57.684Z,18.20
2019-05-22T17:29:28.479Z,18.10
2019-05-22T17:31:58.023Z,18.10
2019-05-22T17:34:35.504Z,18.00
2019-05-22T17:37:11.502Z,17.90
2019-05-22T17:39:44.190Z,17.90
2019-05-22T17:42:15.877Z,17.90
2019-05-22T17:44:47.667Z,17.90
2019-05-22T17:47:18.891Z,17.90
2019-05-22T17:49:48.904Z,17.90
2019-05-22T17:52:19.970Z,17.80
2019-05-22T17:54:52.992Z,17.80
2019-05-22T17:57:24.031Z,17.70
2019-05-22T17:59:53.598Z,17.80
2019-05-22T18:02:26.279Z,17.70
2019-05-22T18:04:55.989Z,17.80
2019-05-22T18:07:26.404Z,17.80
2019-05-22T18:09:55.988Z,17.70
2019-05-22T18:12:27.040Z,17.60
2019-05-22T18:14:56.553Z,17.60
2019-05-22T18:17:26.583Z,17.60
2019-05-22T18:19:56.816Z,17.60
2019-05-22T18:22:26.768Z,17.60
2019-05-22T18:24:56.643Z,17.50
2019-05-22T18:27:26.073Z,17.50
2019-05-22T18:29:55.343Z,17.50
2019-05-22T18:32:24.743Z,17.40
2019-05-22T18:34:53.993Z,17.40
2019-05-22T18:37:23.671Z,17.40
2019-05-22T18:39:53.819Z,17.30
2019-05-22T18:42:24.320Z,17.20
2019-05-22T18:44:54.108Z,17.20
2019-05-22T18:47:23.741Z,17.10
2019-05-22T18:49:53.329Z,17.00
2019-05-22T18:52:38.203Z,17.00
2019-05-22T18:54:54.013Z,17.00
2019-05-22T18:57:24.497Z,17.00
2019-05-22T19:00:00.599Z,17.00
2019-05-22T19:02:25.677Z,17.00
2019-05-22T19:04:54.996Z,17.00
2019-05-22T19:07:24.975Z,16.90
2019-05-22T19:09:54.628Z,16.90
2019-05-22T19:12:24.681Z,16.80
2019-05-22T19:14:54.229Z,16.70
2019-05-22T19:17:23.656Z,16.60
2019-05-22T19:19:52.920Z,16.60
2019-05-22T19:22:22.771Z,16.50
2019-05-22T19:24:51.995Z,16.50
2019-05-22T19:27:21.191Z,16.50
2019-05-22T19:29:50.722Z,16.50
2019-05-22T19:32:20.257Z,16.40
2019-05-22T19:34:49.708Z,16.30
2019-05-22T19:37:20.089Z,16.30
2019-05-22T19:39:49.859Z,16.20
2019-05-22T19:42:19.631Z,16.10
2019-05-22T19:44:49.379Z,16.00
2019-05-22T19:47:19.717Z,15.90
2019-05-22T19:49:49.485Z,15.90
2019-05-22T19:52:22.601Z,15.70
2019-05-22T19:54:51.888Z,15.70
2019-05-22T19:57:21.212Z,15.70
2019-05-22T19:59:50.919Z,15.50
2019-05-22T20:02:20.637Z,15.50
2019-05-22T20:04:51.539Z,15.40
2019-05-22T20:07:21.191Z,15.40
2019-05-22T20:09:50.875Z,15.30
2019-05-22T20:12:24.720Z,15.20
2019-05-22T20:14:52.843Z,15.10
2019-05-22T20:17:22.644Z,15.00
2019-05-22T20:19:52.493Z,14.90
2019-05-22T20:22:22.326Z,14.80
2019-05-22T20:24:51.648Z,14.70
2019-05-22T20:27:21.640Z,14.60
2019-05-22T20:29:51.555Z,14.50
2019-05-22T20:32:21.429Z,14.50
2019-05-22T20:34:50.940Z,14.40
2019-05-22T20:37:20.368Z,14.30
2019-05-22T20:39:50.132Z,14.20
2019-05-22T20:42:19.995Z,14.20
2019-05-22T20:44:49.659Z,14.10
2019-05-22T20:47:22.448Z,13.90
2019-05-22T20:49:52.537Z,13.90
2019-05-22T20:52:23.304Z,13.90
2019-05-22T20:54:53.668Z,13.90
2019-05-22T20:57:25.728Z,13.90
2019-05-22T20:59:55.728Z,13.90
2019-05-22T21:02:27.391Z,14.00
2019-05-22T21:04:57.510Z,14.00
2019-05-22T21:07:31.493Z,14.00
2019-05-22T21:10:01.785Z,14.00
2019-05-22T21:12:35.923Z,14.10
2019-05-22T21:15:06.316Z,14.10
2019-05-22T21:17:37.425Z,14.20
2019-05-22T21:20:08.853Z,14.20
2019-05-22T21:22:38.702Z,14.20
2019-05-22T21:25:08.749Z,14.30
2019-05-22T21:27:38.440Z,14.20
2019-05-22T21:30:10.113Z,14.20
2019-05-22T21:32:40.370Z,14.10
2019-05-22T21:35:11.376Z,14.00
2019-05-22T21:37:40.998Z,14.00
2019-05-22T21:40:12.294Z,13.90
2019-05-22T21:42:44.130Z,14.00
2019-05-22T21:45:14.493Z,13.90
2019-05-22T21:47:44.517Z,14.00
2019-05-22T21:50:16.642Z,14.00
2019-05-22T21:52:45.892Z,14.00
2019-05-22T21:55:16.011Z,14.00
2019-05-22T21:57:46.404Z,14.00
2019-05-22T22:00:21.931Z,14.00
2019-05-22T22:02:52.382Z,14.00
2019-05-22T22:05:22.621Z,14.00
2019-05-22T22:07:53.010Z,14.00
2019-05-22T22:10:22.836Z,14.00
2019-05-22T22:12:52.674Z,14.00
2019-05-22T22:15:22.156Z,14.00
2019-05-22T22:17:52.441Z,14.00
2019-05-22T22:20:22.290Z,14.00
2019-05-22T22:22:51.911Z,13.90
2019-05-22T22:25:23.947Z,13.90
2019-05-22T22:27:53.175Z,14.00
2019-05-22T22:30:29.828Z,13.90
2019-05-22T22:33:02.097Z,13.90
2019-05-22T22:35:32.328Z,13.90
2019-05-22T22:38:02.737Z,13.90
2019-05-22T22:40:31.976Z,14.00
2019-05-22T22:43:03.345Z,14.00
2019-05-22T22:45:43.520Z,14.00
2019-05-22T22:48:15.815Z,14.00
2019-05-22T22:50:45.743Z,14.00
2019-05-22T22:53:15.763Z,14.00
2019-05-22T22:55:47.272Z,13.90
2019-05-22T22:58:18.908Z,13.90
2019-05-22T23:00:49.351Z,13.90
2019-05-22T23:03:24.305Z,13.90
2019-05-22T23:05:54.404Z,13.80
2019-05-22T23:08:29.568Z,13.70
2019-05-22T23:11:00.338Z,13.70
2019-05-22T23:13:30.110Z,13.60
2019-05-22T23:16:00.584Z,13.50
2019-05-22T23:19:24.874Z,13.50
2019-05-22T23:21:52.535Z,13.50
2019-05-22T23:24:24.286Z,13.40
2019-05-22T23:26:54.466Z,13.40
2019-05-22T23:29:23.800Z,13.40
2019-05-22T23:31:55.143Z,13.40
2019-05-22T23:34:24.913Z,13.40
2019-05-22T23:36:55.322Z,13.50
2019-05-22T23:39:26.243Z,13.50
2019-05-22T23:41:59.466Z,13.50
2019-05-22T23:44:29.504Z,13.50
2019-05-22T23:46:59.541Z,13.50
2019-05-22T23:49:29.086Z,13.50
2019-05-22T23:51:59.359Z,13.50
2019-05-22T23:54:30.275Z,13.50
2019-05-22T23:57:01.387Z,13.50
2019-05-22T23:59:33.202Z,13.50
